Barrow, AK

8:41 PM AKDT on September 03, 2015 (GMT -0800)
Wiley Post-Will Rogers Memorial | | Change Station
CLOSE
Current Station
Airport
Location: Barrow,
Elevation: 43 ft
Nearby Weather Stations

Elev 43 ft 71.28 °N, 156.79 °W | Updated 48 minutes ago

Overcast
Overcast
36 °F
Feels Like 24 °F
N
23
Wind Variable Wind from ESE
Gusts 31 mph

Today
High -- | Low -- °F
--% Chance of Precip.
Yesterday
High -- | Low -- °F
Precip. -- in
6:43 AM 10:06 PM
Waning Gibbous, 63% visible
Pressure 30.11 in
Visibility 9.0 miles
Clouds Overcast 400 ft
Windchill 24 °F
Dew Point 34 °F
Humidity 93%
Rainfall 0.00 in
Snow Depth Not available.
UV 0 out of 12
Pollen Not available.
Air Quality Not available.
Flu Activity Not available.
METAR PABR 040353Z 11020G27KT 9SM OVC004 02/01 A3010 RMK PK WND 11027/0352 SLP194 T00220011 VIA AUTODIAL
Pressure 30.11 in
Visibility 9.0 miles
Clouds Overcast 400 ft
Windchill 24 °F
Dew Point 34 °F
Humidity 93%
Rainfall 0.00 in
Snow Depth Not available.
UV 0 out of 12
Pollen Not available.
Air Quality Not available.
Flu Activity Not available.
METAR PABR 040353Z 11020G27KT 9SM OVC004 02/01 A3010 RMK PK WND 11027/0352 SLP194 T00220011 VIA AUTODIAL

10-Day Weather Forecast

×

Almanac

Astronomy

Sep. 03, 2015 Rise Set
Actual Time
Civil Twilight
Nautical Twilight
Astronomical Twilight
Moon
Length of Visible Light
Length of Day
Tomorrow will be .
, % of the Moon is Illuminated

Today's Extremes

State Highs State Lows

Community

WunderPhotos

Upload Photos

1,852,129 photos uploaded!

WunderBlogs® & News

Nearby

Air Quality

  Air Quality AQ Index Pollutant
Not available.

Snow Depth

Station Depth Elevation

Earthquake Activity

City Distance Mag. Time & Date
Minimum magnitude displayed is 2.5.

Coastal Water Temperatures

Place Temperature

Stations

Nearby Weather Stations

Station Location Temp. Windchill Dew Point Humidity Wind Precip. Elev Updated Type